Time;durP1;ratioP1;P1;durP2;ratioP2;P2;SDS_P1;SDS_P2;PMS_P1;PMS_P2;Temp;Humidity;BMP_temperature;BMP_pressure;BME280_temperature;BME280_humidity;BME280_pressure;Samples;Min_cycle;Max_cycle;Signal;HPM_P1;HPM_P2
2021/10/25 00:00:44;;;;;;;;;;;13.30;99.90;;;;;;4972634;28;803;-53
2021/10/25 00:03:10;;;;;;;;;;;13.30;99.90;;;;;;4977520;28;1030;-51
2021/10/25 00:05:36;;;;;;;;;;;13.30;99.90;;;;;;4977599;28;885;-53
2021/10/25 00:08:02;;;;;;;;;;;13.30;99.90;;;;;;4977657;28;924;-52
2021/10/25 00:10:28;;;;;;;;;;;13.20;99.90;;;;;;4977418;28;870;-51
2021/10/25 00:12:54;;;;;;;;;;;13.20;99.90;;;;;;4977620;28;847;-53
2021/10/25 00:15:20;;;;;;;;;;;13.20;99.90;;;;;;4977540;28;1965;-53
2021/10/25 00:17:46;;;;;;;;;;;13.20;99.90;;;;;;4977714;28;1018;-53
2021/10/25 00:20:13;;;;;;;;;;;13.20;99.90;;;;;;4976764;28;1046;-51
2021/10/25 00:22:39;;;;;;;;;;;13.20;99.90;;;;;;4977694;28;917;-51
2021/10/25 00:25:06;;;;;;;;;;;13.20;99.90;;;;;;4976572;28;937;-51
2021/10/25 00:27:32;;;;;;;;;;;13.20;99.90;;;;;;4976029;28;1035;-51
2021/10/25 00:29:58;;;;;;;;;;;13.20;99.90;;;;;;4977598;28;1008;-51
2021/10/25 00:32:24;;;;;;;;;;;13.20;99.90;;;;;;4977212;28;877;-53
2021/10/25 00:34:50;;;;;;;;;;;13.20;99.90;;;;;;4977248;28;1899;-53
2021/10/25 00:37:16;;;;;;;;;;;13.10;99.90;;;;;;4975542;28;1224;-53
2021/10/25 00:39:42;;;;;;;;;;;13.20;99.90;;;;;;4977393;28;843;-54
2021/10/25 00:42:08;;;;;;;;;;;13.10;99.90;;;;;;4977285;28;942;-53
2021/10/25 00:44:34;;;;;;;;;;;13.10;99.90;;;;;;4976918;28;1188;-54
2021/10/25 00:47:00;;;;;;;;;;;13.10;99.90;;;;;;4977050;28;883;-55
2021/10/25 00:49:26;;;;;;;;;;;13.10;99.90;;;;;;4976209;28;895;-52
2021/10/25 00:51:53;;;;;;;;;;;13.10;99.90;;;;;;4977053;28;974;-53
2021/10/25 00:54:20;;;;;;;;;;;13.10;99.90;;;;;;4975630;28;1910;-52
2021/10/25 00:56:47;;;;;;;;;;;13.10;99.90;;;;;;4976952;28;1112;-54
2021/10/25 00:59:13;;;;;;;;;;;13.10;99.90;;;;;;4975868;28;882;-54
2021/10/25 01:01:39;;;;;;;;;;;13.10;99.90;;;;;;4977317;28;930;-54
2021/10/25 01:04:06;;;;;;;;;;;13.10;99.90;;;;;;4977167;28;893;-54
2021/10/25 01:06:32;;;;;;;;;;;13.10;99.90;;;;;;4977630;28;887;-54
2021/10/25 01:08:58;;;;;;;;;;;13.10;99.90;;;;;;4977191;28;849;-54
2021/10/25 01:11:24;;;;;;;;;;;13.10;99.90;;;;;;4973526;28;767;-54
2021/10/25 01:13:51;;;;;;;;;;;13.10;99.90;;;;;;4976357;28;1902;-54
2021/10/25 01:16:18;;;;;;;;;;;13.10;99.90;;;;;;4980346;28;873;-54
2021/10/25 01:18:45;;;;;;;;;;;13.10;99.90;;;;;;4980758;28;808;-54
2021/10/25 01:21:14;;;;;;;;;;;13.10;99.90;;;;;;4980632;28;834;-52
2021/10/25 01:23:40;;;;;;;;;;;13.10;99.90;;;;;;4980558;28;889;-52
2021/10/25 01:26:06;;;;;;;;;;;13.10;99.90;;;;;;4980170;28;1002;-53
2021/10/25 01:28:34;;;;;;;;;;;13.10;99.90;;;;;;4980560;28;804;-53
2021/10/25 01:31:00;;;;;;;;;;;13.10;99.90;;;;;;4980591;28;786;-53
2021/10/25 01:33:29;;;;;;;;;;;13.10;99.90;;;;;;4979475;28;1959;-54
2021/10/25 01:35:55;;;;;;;;;;;13.10;99.90;;;;;;4980381;28;837;-53
2021/10/25 01:38:21;;;;;;;;;;;13.10;99.90;;;;;;4980258;28;982;-53
2021/10/25 01:40:47;;;;;;;;;;;13.10;99.90;;;;;;4980396;28;771;-54
2021/10/25 01:43:13;;;;;;;;;;;13.10;99.90;;;;;;4979015;28;1105;-53
2021/10/25 01:45:39;;;;;;;;;;;13.10;99.90;;;;;;4980338;28;767;-53
2021/10/25 01:48:05;;;;;;;;;;;13.10;99.90;;;;;;4980494;28;875;-53
2021/10/25 01:50:31;;;;;;;;;;;13.10;99.90;;;;;;4979211;28;1015;-52
2021/10/25 01:52:58;;;;;;;;;;;13.10;99.90;;;;;;4979197;28;949;-51
2021/10/25 01:55:24;;;;;;;;;;;13.10;99.90;;;;;;4980006;28;1961;-51
2021/10/25 01:57:50;;;;;;;;;;;13.10;99.90;;;;;;4979937;28;897;-53
2021/10/25 02:00:17;;;;;;;;;;;13.10;99.90;;;;;;4979048;28;1305;-53
2021/10/25 02:02:43;;;;;;;;;;;13.10;99.90;;;;;;4979998;28;898;-54
2021/10/25 02:05:08;;;;;;;;;;;13.10;99.90;;;;;;4980132;28;877;-51
2021/10/25 02:07:34;;;;;;;;;;;13.10;99.90;;;;;;4980034;28;842;-51
2021/10/25 02:10:00;;;;;;;;;;;13.10;99.90;;;;;;4979874;28;899;-51
2021/10/25 02:12:26;;;;;;;;;;;13.10;99.90;;;;;;4979826;28;798;-51
2021/10/25 02:14:52;;;;;;;;;;;13.10;99.90;;;;;;4979535;28;1895;-51
2021/10/25 02:17:18;;;;;;;;;;;13.10;99.90;;;;;;4979842;28;898;-51
2021/10/25 02:19:46;;;;;;;;;;;13.10;99.90;;;;;;4979647;28;797;-51
2021/10/25 02:22:12;;;;;;;;;;;13.00;99.90;;;;;;4979581;28;1057;-53
2021/10/25 02:24:39;;;;;;;;;;;13.10;99.90;;;;;;4979522;28;1098;-53
2021/10/25 02:27:05;;;;;;;;;;;13.10;99.90;;;;;;4979789;28;960;-53
2021/10/25 02:29:35;;;;;;;;;;;13.10;99.90;;;;;;4977790;28;1177;-53
2021/10/25 02:32:02;;;;;;;;;;;13.10;99.90;;;;;;4979873;28;1000;-53
2021/10/25 02:34:28;;;;;;;;;;;13.00;99.90;;;;;;4979295;28;1961;-53
2021/10/25 02:36:55;;;;;;;;;;;13.00;99.90;;;;;;4979155;28;1004;-53
2021/10/25 02:39:21;;;;;;;;;;;13.00;99.90;;;;;;4979523;28;1126;-53
2021/10/25 02:41:46;;;;;;;;;;;13.00;99.90;;;;;;4979330;28;830;-51
2021/10/25 02:44:12;;;;;;;;;;;13.00;99.90;;;;;;4978879;28;1250;-52
2021/10/25 02:46:38;;;;;;;;;;;13.00;99.90;;;;;;4979278;28;743;-53
2021/10/25 02:49:04;;;;;;;;;;;13.00;99.90;;;;;;4979057;28;746;-53
2021/10/25 02:51:30;;;;;;;;;;;13.00;99.90;;;;;;4978985;28;750;-53
2021/10/25 02:53:56;;;;;;;;;;;13.00;99.90;;;;;;4978925;28;1915;-53
2021/10/25 02:56:22;;;;;;;;;;;12.90;99.90;;;;;;4979305;28;893;-53
2021/10/25 02:58:48;;;;;;;;;;;13.00;99.90;;;;;;4979081;28;786;-53
2021/10/25 03:01:14;;;;;;;;;;;13.00;99.90;;;;;;4979203;28;858;-54
2021/10/25 03:03:40;;;;;;;;;;;12.90;99.90;;;;;;4978905;28;881;-54
2021/10/25 03:06:06;;;;;;;;;;;12.90;99.90;;;;;;4978698;28;773;-51
2021/10/25 03:08:32;;;;;;;;;;;12.90;99.90;;;;;;4978762;28;1012;-51
2021/10/25 03:10:58;;;;;;;;;;;12.90;99.90;;;;;;4978636;28;963;-53
2021/10/25 03:13:24;;;;;;;;;;;12.90;99.90;;;;;;4978638;28;843;-52
2021/10/25 03:15:51;;;;;;;;;;;12.90;99.90;;;;;;4978736;28;1969;-51
2021/10/25 03:18:18;;;;;;;;;;;12.90;99.90;;;;;;4978838;28;846;-51
2021/10/25 03:20:44;;;;;;;;;;;12.90;99.90;;;;;;4978598;28;849;-51
2021/10/25 03:23:11;;;;;;;;;;;12.90;99.90;;;;;;4975069;28;845;-51
2021/10/25 03:25:37;;;;;;;;;;;12.90;99.90;;;;;;4978362;28;759;-52
2021/10/25 03:28:03;;;;;;;;;;;12.80;99.90;;;;;;4978560;28;828;-52
2021/10/25 03:30:29;;;;;;;;;;;12.90;99.90;;;;;;4978446;28;788;-52
2021/10/25 03:32:55;;;;;;;;;;;12.80;99.90;;;;;;4978502;28;754;-52
2021/10/25 03:35:21;;;;;;;;;;;12.80;99.90;;;;;;4978390;28;1899;-52
2021/10/25 03:37:47;;;;;;;;;;;12.80;99.90;;;;;;4977693;28;966;-51
2021/10/25 03:40:14;;;;;;;;;;;12.80;99.90;;;;;;4978208;28;755;-51
2021/10/25 03:42:43;;;;;;;;;;;12.80;99.90;;;;;;4978097;28;1223;-53
2021/10/25 03:47:54;;;;;;;;;;;12.80;99.90;;;;;;4978233;28;916;-53
2021/10/25 03:50:23;;;;;;;;;;;12.80;99.90;;;;;;4978070;28;1451;-51
2021/10/25 03:52:54;;;;;;;;;;;12.80;99.90;;;;;;4977766;28;935;-51
2021/10/25 03:55:39;;;;;;;;;;;12.80;99.90;;;;;;4978047;28;1906;-53
2021/10/25 04:03:51;;;;;;;;;;;12.80;99.90;;;;;;4977828;28;767;-53
2021/10/25 04:25:43;;;;;;;;;;;12.70;99.90;;;;;;4975968;28;1408;-51
2021/10/25 04:28:06;;;;;;;;;;;12.70;99.90;;;;;;4976692;28;1775;-51
2021/10/25 04:30:33;;;;;;;;;;;12.70;99.90;;;;;;4978403;28;842;-52
2021/10/25 04:33:00;;;;;;;;;;;12.70;99.90;;;;;;4978229;28;914;-52
2021/10/25 04:35:26;;;;;;;;;;;12.70;99.90;;;;;;4978172;28;1964;-52
2021/10/25 04:37:52;;;;;;;;;;;12.70;99.90;;;;;;4977934;28;1011;-54
2021/10/25 04:40:18;;;;;;;;;;;12.60;99.90;;;;;;4977132;28;1015;-52
2021/10/25 04:42:44;;;;;;;;;;;12.60;99.90;;;;;;4977565;28;1086;-51
2021/10/25 04:45:15;;;;;;;;;;;12.60;99.90;;;;;;4977610;28;946;-51
2021/10/25 04:47:41;;;;;;;;;;;12.70;99.90;;;;;;4977453;28;944;-52
2021/10/25 04:50:08;;;;;;;;;;;12.60;99.90;;;;;;4976174;28;886;-51
2021/10/25 04:52:34;;;;;;;;;;;12.70;99.90;;;;;;4978129;28;827;-51
2021/10/25 04:55:00;;;;;;;;;;;12.70;99.90;;;;;;4978298;28;1976;-52
2021/10/25 04:57:26;;;;;;;;;;;12.80;99.90;;;;;;4978286;28;744;-51
2021/10/25 04:59:52;;;;;;;;;;;12.80;99.90;;;;;;4978042;28;920;-53
2021/10/25 05:02:18;;;;;;;;;;;12.90;99.90;;;;;;4978090;28;782;-51
2021/10/25 05:04:44;;;;;;;;;;;13.00;99.90;;;;;;4978234;28;801;-51
2021/10/25 05:07:10;;;;;;;;;;;13.10;99.90;;;;;;4978167;28;1172;-54
2021/10/25 05:09:36;;;;;;;;;;;13.30;99.90;;;;;;4977941;28;900;-58
2021/10/25 05:12:02;;;;;;;;;;;13.40;99.90;;;;;;4976033;28;822;-51
2021/10/25 05:14:28;;;;;;;;;;;13.60;99.90;;;;;;4976904;28;1964;-52
2021/10/25 05:16:54;;;;;;;;;;;13.70;99.90;;;;;;4976997;28;862;-51
2021/10/25 05:19:20;;;;;;;;;;;13.80;99.90;;;;;;4976922;28;832;-53
2021/10/25 05:21:46;;;;;;;;;;;14.00;99.90;;;;;;4976373;28;935;-53
2021/10/25 05:24:12;;;;;;;;;;;14.20;99.90;;;;;;4976853;28;889;-52
2021/10/25 05:26:38;;;;;;;;;;;14.40;99.90;;;;;;4976866;28;1110;-51
2021/10/25 05:29:04;;;;;;;;;;;14.60;99.90;;;;;;4976868;28;846;-51
2021/10/25 05:31:31;;;;;;;;;;;14.70;99.90;;;;;;4976984;28;782;-51
2021/10/25 05:33:57;;;;;;;;;;;14.80;99.90;;;;;;4976886;28;1906;-51
2021/10/25 05:36:23;;;;;;;;;;;14.90;99.90;;;;;;4975537;28;931;-51
2021/10/25 05:38:51;;;;;;;;;;;15.00;99.90;;;;;;4976843;28;959;-51
2021/10/25 05:41:17;;;;;;;;;;;15.10;99.90;;;;;;4977011;28;856;-51
2021/10/25 05:43:43;;;;;;;;;;;15.10;99.90;;;;;;4975273;28;1262;-54
2021/10/25 05:46:08;;;;;;;;;;;15.10;99.90;;;;;;4976748;28;1011;-52
2021/10/25 05:48:34;;;;;;;;;;;15.10;99.90;;;;;;4976528;28;884;-51
2021/10/25 05:51:02;;;;;;;;;;;15.00;99.90;;;;;;4976400;28;1627;-51
2021/10/25 05:53:28;;;;;;;;;;;15.00;99.90;;;;;;4975489;28;1005;-51
2021/10/25 05:55:54;;;;;;;;;;;14.90;99.90;;;;;;4975962;28;1973;-53
2021/10/25 05:58:21;;;;;;;;;;;14.90;99.90;;;;;;4976309;28;881;-53
2021/10/25 06:01:01;;;;;;;;;;;14.80;99.90;;;;;;4977454;28;878;-51
2021/10/25 06:03:31;;;;;;;;;;;14.70;99.90;;;;;;4973618;28;1021;-51
2021/10/25 06:05:57;;;;;;;;;;;14.70;99.90;;;;;;4979842;28;867;-51
2021/10/25 06:08:23;;;;;;;;;;;14.60;99.90;;;;;;4979954;28;949;-53
2021/10/25 06:10:49;;;;;;;;;;;14.60;99.90;;;;;;4980065;28;937;-53
2021/10/25 06:13:29;;;;;;;;;;;14.50;99.90;;;;;;4979636;28;912;-54
2021/10/25 06:16:14;;;;;;;;;;;14.40;99.90;;;;;;4979726;28;1894;-53
2021/10/25 06:18:40;;;;;;;;;;;14.40;99.90;;;;;;4979699;28;813;-52
2021/10/25 06:21:07;;;;;;;;;;;14.30;99.90;;;;;;4978382;28;1153;-52
2021/10/25 06:23:33;;;;;;;;;;;14.30;99.90;;;;;;4976539;28;1125;-53
2021/10/25 06:26:00;;;;;;;;;;;14.20;99.90;;;;;;4974060;28;1210;-52
2021/10/25 06:28:26;;;;;;;;;;;14.20;99.90;;;;;;4974229;28;1101;-52
2021/10/25 06:31:15;;;;;;;;;;;14.10;99.90;;;;;;4975293;28;1311;-52
2021/10/25 06:33:44;;;;;;;;;;;14.10;99.90;;;;;;4976223;28;838;-52
2021/10/25 06:36:11;;;;;;;;;;;14.00;99.90;;;;;;4979623;28;1962;-54
2021/10/25 06:38:54;;;;;;;;;;;14.00;99.90;;;;;;4979360;28;875;-53
2021/10/25 06:41:21;;;;;;;;;;;13.90;99.90;;;;;;4979377;28;776;-53
2021/10/25 06:43:47;;;;;;;;;;;13.90;99.90;;;;;;4978115;28;1191;-54
2021/10/25 06:46:14;;;;;;;;;;;13.90;99.90;;;;;;4979352;28;932;-52
2021/10/25 06:48:40;;;;;;;;;;;13.80;99.90;;;;;;4979217;28;1166;-52
2021/10/25 06:51:07;;;;;;;;;;;13.90;99.90;;;;;;4979330;28;847;-53
2021/10/25 06:53:33;;;;;;;;;;;13.90;99.90;;;;;;4979087;28;767;-52
2021/10/25 06:55:59;;;;;;;;;;;13.80;99.90;;;;;;4978180;28;1966;-52
2021/10/25 06:58:25;;;;;;;;;;;13.80;99.90;;;;;;4978958;28;1582;-54
2021/10/25 07:00:59;;;;;;;;;;;13.80;99.90;;;;;;4974264;28;1819;-52
2021/10/25 07:03:25;;;;;;;;;;;13.70;99.90;;;;;;4979128;28;1602;-52
2021/10/25 07:05:53;;;;;;;;;;;13.70;99.90;;;;;;4979372;28;854;-52
2021/10/25 07:08:20;;;;;;;;;;;13.80;99.90;;;;;;4978805;28;897;-52
2021/10/25 07:10:47;;;;;;;;;;;13.90;99.90;;;;;;4979215;28;837;-52
2021/10/25 07:13:13;;;;;;;;;;;14.20;99.90;;;;;;4977772;28;1628;-52
2021/10/25 07:16:23;;;;;;;;;;;14.30;99.90;;;;;;4977196;28;1962;-52
2021/10/25 07:18:49;;;;;;;;;;;14.60;99.90;;;;;;4972891;28;1425;-52
2021/10/25 07:21:33;;;;;;;;;;;14.80;99.90;;;;;;4978757;28;917;-52
2021/10/25 08:09:57;;;;;;;;;;;16.50;99.90;;;;;;4975405;28;1215;-55
2021/10/25 08:12:26;;;;;;;;;;;16.90;99.90;;;;;;4977714;28;768;-54
2021/10/25 08:15:03;;;;;;;;;;;16.80;99.90;;;;;;4977486;28;1906;-54
2021/10/25 08:17:41;;;;;;;;;;;16.60;99.90;;;;;;4976891;28;1050;-54
2021/10/25 08:20:08;;;;;;;;;;;16.40;99.90;;;;;;4976741;28;1340;-52
2021/10/25 08:22:34;;;;;;;;;;;16.40;99.90;;;;;;4977343;28;810;-52
2021/10/25 08:25:00;;;;;;;;;;;16.40;99.90;;;;;;4974643;28;1037;-52
2021/10/25 08:27:26;;;;;;;;;;;16.50;99.90;;;;;;4978084;28;1480;-52
2021/10/25 08:29:52;;;;;;;;;;;16.40;99.90;;;;;;4977102;28;902;-52
2021/10/25 08:35:22;;;;;;;;;;;16.60;99.90;;;;;;4977599;28;1974;-54
2021/10/25 08:40:37;;;;;;;;;;;16.70;99.90;;;;;;4970947;28;1118;-52
2021/10/25 08:43:03;;;;;;;;;;;16.80;99.90;;;;;;4971832;28;1249;-52
2021/10/25 08:45:32;;;;;;;;;;;16.80;99.90;;;;;;4976951;28;955;-53
2021/10/25 08:47:58;;;;;;;;;;;16.90;99.90;;;;;;4975736;28;1469;-55
2021/10/25 08:50:26;;;;;;;;;;;17.00;99.90;;;;;;4974090;28;1196;-55
2021/10/25 08:52:52;;;;;;;;;;;17.20;99.90;;;;;;4977005;28;951;-52
2021/10/25 08:55:18;;;;;;;;;;;17.30;99.90;;;;;;4977005;28;1915;-52
2021/10/25 08:57:48;;;;;;;;;;;17.20;99.90;;;;;;4977212;28;913;-52
2021/10/25 09:00:16;;;;;;;;;;;17.20;99.90;;;;;;4976544;28;1214;-52
2021/10/25 09:02:42;;;;;;;;;;;17.20;99.90;;;;;;4976517;28;1147;-54
2021/10/25 09:05:15;;;;;;;;;;;17.20;99.90;;;;;;4977007;28;936;-54
2021/10/25 09:07:48;;;;;;;;;;;17.20;99.90;;;;;;4976816;28;936;-55
2021/10/25 09:10:22;;;;;;;;;;;17.30;99.90;;;;;;4977202;28;979;-54
2021/10/25 09:13:17;;;;;;;;;;;17.30;99.90;;;;;;4977131;28;869;-54
2021/10/25 09:15:49;;;;;;;;;;;17.20;99.90;;;;;;4977404;28;1910;-54
2021/10/25 09:18:17;;;;;;;;;;;17.30;99.90;;;;;;4977034;28;839;-54
2021/10/25 09:20:48;;;;;;;;;;;17.30;99.90;;;;;;4977414;28;826;-54
2021/10/25 09:23:15;;;;;;;;;;;17.30;99.90;;;;;;4976927;28;868;-55
2021/10/25 09:25:41;;;;;;;;;;;17.30;99.90;;;;;;4977036;28;886;-54
2021/10/25 09:28:15;;;;;;;;;;;17.30;99.90;;;;;;4977163;28;939;-54
2021/10/25 09:30:49;;;;;;;;;;;17.30;99.90;;;;;;4976783;28;907;-54
2021/10/25 09:33:20;;;;;;;;;;;17.40;99.90;;;;;;4977123;28;822;-54
2021/10/25 09:35:52;;;;;;;;;;;17.40;99.90;;;;;;4977414;28;1907;-52
2021/10/25 09:38:34;;;;;;;;;;;17.50;99.90;;;;;;4979736;28;811;-52
2021/10/25 09:41:47;;;;;;;;;;;17.50;99.90;;;;;;4980816;28;820;-52
2021/10/25 09:49:34;;;;;;;;;;;17.40;99.90;;;;;;4980380;28;806;-54
2021/10/25 09:52:02;;;;;;;;;;;17.40;99.90;;;;;;4971348;28;1124;-51
2021/10/25 09:54:28;;;;;;;;;;;17.40;99.90;;;;;;4970549;28;1614;-53
2021/10/25 09:57:06;;;;;;;;;;;17.50;99.90;;;;;;4979290;28;1645;-53
2021/10/25 09:59:47;;;;;;;;;;;17.50;99.90;;;;;;4980392;28;1666;-53
2021/10/25 10:02:14;;;;;;;;;;;17.60;99.90;;;;;;4979906;28;1609;-55
2021/10/25 10:04:49;;;;;;;;;;;17.60;99.90;;;;;;4978876;28;1053;-53
2021/10/25 10:07:18;;;;;;;;;;;17.60;99.90;;;;;;4976867;28;1038;-53
2021/10/25 10:09:45;;;;;;;;;;;17.70;99.90;;;;;;4976138;28;1299;-52
2021/10/25 10:12:15;;;;;;;;;;;17.70;99.90;;;;;;4974389;28;1370;-53
2021/10/25 10:14:41;;;;;;;;;;;17.70;99.90;;;;;;4974907;28;1977;-53
2021/10/25 10:17:08;;;;;;;;;;;17.80;99.90;;;;;;4980266;28;758;-53
2021/10/25 10:19:34;;;;;;;;;;;17.80;99.90;;;;;;4978979;28;1216;-52
2021/10/25 10:22:02;;;;;;;;;;;17.80;99.90;;;;;;4980870;28;897;-54
2021/10/25 10:24:34;;;;;;;;;;;17.90;99.90;;;;;;4980043;28;771;-54
2021/10/25 10:27:01;;;;;;;;;;;17.90;99.90;;;;;;4977360;28;1196;-54
2021/10/25 10:29:35;;;;;;;;;;;18.00;99.90;;;;;;4979964;28;1624;-53
2021/10/25 10:32:02;;;;;;;;;;;18.10;99.90;;;;;;4980229;28;1293;-53
2021/10/25 10:34:37;;;;;;;;;;;18.20;99.90;;;;;;4981776;28;996;-52
2021/10/25 10:37:03;;;;;;;;;;;18.20;99.90;;;;;;4981224;28;1139;-52
2021/10/25 10:39:29;;;;;;;;;;;18.30;99.90;;;;;;4980999;28;2038;-52
2021/10/25 10:41:58;;;;;;;;;;;18.40;99.90;;;;;;4979758;28;889;-54
2021/10/25 10:44:27;;;;;;;;;;;18.50;99.90;;;;;;4974345;28;1118;-54
2021/10/25 10:46:56;;;;;;;;;;;18.50;99.90;;;;;;4979022;28;800;-54
2021/10/25 10:49:25;;;;;;;;;;;18.60;99.90;;;;;;4978421;28;1156;-52
2021/10/25 10:52:12;;;;;;;;;;;18.60;99.90;;;;;;4972080;28;1187;-53
2021/10/25 10:54:46;;;;;;;;;;;18.70;99.90;;;;;;4967864;28;1129;-55
2021/10/25 10:57:26;;;;;;;;;;;18.80;99.90;;;;;;4979746;28;879;-55
2021/10/25 10:59:58;;;;;;;;;;;18.80;99.90;;;;;;4975227;28;1194;-52
2021/10/25 11:02:25;;;;;;;;;;;18.90;99.90;;;;;;4976697;28;1474;-54
2021/10/25 11:05:02;;;;;;;;;;;18.90;99.90;;;;;;4977294;28;1202;-54
2021/10/25 11:07:29;;;;;;;;;;;18.90;99.90;;;;;;4978855;28;788;-64
2021/10/25 11:09:59;;;;;;;;;;;18.70;99.90;;;;;;4977982;28;930;-64
2021/10/25 11:12:26;;;;;;;;;;;18.60;99.90;;;;;;4978886;28;1006;-66
2021/10/25 11:14:55;;;;;;;;;;;18.30;99.90;;;;;;4978556;28;1960;-66
2021/10/25 11:17:26;;;;;;;;;;;18.10;99.90;;;;;;4977944;28;818;-66
2021/10/25 11:19:55;;;;;;;;;;;18.00;99.90;;;;;;4978756;28;876;-66
2021/10/25 11:22:25;;;;;;;;;;;17.90;99.90;;;;;;4972668;28;770;-66
2021/10/25 11:24:53;;;;;;;;;;;17.90;99.90;;;;;;4978785;28;821;-66
2021/10/25 11:27:23;;;;;;;;;;;17.90;99.90;;;;;;4977770;28;1121;-67
2021/10/25 11:29:49;;;;;;;;;;;17.80;99.90;;;;;;4975058;28;931;-67
2021/10/25 11:32:15;;;;;;;;;;;17.80;99.90;;;;;;4978500;28;834;-65
2021/10/25 11:34:46;;;;;;;;;;;17.80;99.90;;;;;;4978812;28;825;-66
2021/10/25 11:37:23;;;;;;;;;;;17.80;99.90;;;;;;4977414;28;1192;-63
2021/10/25 11:40:04;;;;;;;;;;;17.80;99.90;;;;;;4973192;28;1317;-64
2021/10/25 11:42:34;;;;;;;;;;;17.80;99.90;;;;;;4975116;28;1099;-64
2021/10/25 11:45:05;;;;;;;;;;;17.70;99.90;;;;;;4972687;28;1037;-64
2021/10/25 11:47:33;;;;;;;;;;;17.70;99.90;;;;;;4978117;28;869;-65
2021/10/25 11:50:06;;;;;;;;;;;17.60;99.90;;;;;;4973632;28;1077;-64
2021/10/25 11:52:43;;;;;;;;;;;17.60;99.90;;;;;;4978219;28;1086;-64
2021/10/25 11:55:10;;;;;;;;;;;17.50;99.90;;;;;;4972465;28;1911;-64
2021/10/25 11:57:36;;;;;;;;;;;17.40;99.90;;;;;;4975192;28;1053;-64
2021/10/25 12:00:05;;;;;;;;;;;17.40;99.90;;;;;;4974030;28;1061;-64
2021/10/25 12:02:31;;;;;;;;;;;17.40;99.90;;;;;;4969747;28;1612;-64
2021/10/25 12:04:57;;;;;;;;;;;17.30;99.90;;;;;;4973024;28;1219;-64
2021/10/25 12:07:23;;;;;;;;;;;17.30;99.90;;;;;;4977603;28;776;-63
2021/10/25 12:09:57;;;;;;;;;;;17.30;99.90;;;;;;4977748;28;874;-63
2021/10/25 12:12:23;;;;;;;;;;;17.20;99.90;;;;;;4972572;28;936;-63
2021/10/25 12:14:50;;;;;;;;;;;17.20;99.90;;;;;;4959570;28;1264;-63
2021/10/25 12:17:21;;;;;;;;;;;17.20;99.90;;;;;;4977592;28;1376;-63
2021/10/25 12:19:47;;;;;;;;;;;17.10;99.90;;;;;;4976151;28;1084;-63
2021/10/25 12:22:15;;;;;;;;;;;17.10;99.90;;;;;;4971849;28;1344;-62
2021/10/25 12:24:43;;;;;;;;;;;17.10;99.90;;;;;;4977641;28;806;-63
2021/10/25 12:27:20;;;;;;;;;;;17.10;99.90;;;;;;4977811;28;1533;-62
2021/10/25 12:29:57;;;;;;;;;;;17.10;99.90;;;;;;4976796;28;1037;-69
2021/10/25 12:32:23;;;;;;;;;;;17.10;99.90;;;;;;4976772;28;1233;-58
2021/10/25 12:34:53;;;;;;;;;;;17.00;99.90;;;;;;4977267;28;766;-59
2021/10/25 12:37:29;;;;;;;;;;;17.00;99.90;;;;;;4977400;28;779;-60
2021/10/25 12:39:56;;;;;;;;;;;16.90;99.90;;;;;;4976385;28;984;-60
2021/10/25 12:42:23;;;;;;;;;;;16.90;99.90;;;;;;4976823;28;1163;-59
2021/10/25 12:44:52;;;;;;;;;;;16.90;99.90;;;;;;4976949;28;1180;-60
2021/10/25 12:47:21;;;;;;;;;;;17.00;99.90;;;;;;4977338;28;1012;-61
2021/10/25 12:49:48;;;;;;;;;;;17.00;99.90;;;;;;4973398;28;951;-61
2021/10/25 12:52:15;;;;;;;;;;;17.00;99.90;;;;;;4976753;28;1171;-61
2021/10/25 12:54:41;;;;;;;;;;;17.00;99.90;;;;;;4977318;28;882;-61
2021/10/25 12:57:17;;;;;;;;;;;17.00;99.90;;;;;;4976983;28;1965;-59
2021/10/25 12:59:44;;;;;;;;;;;17.00;99.90;;;;;;4977434;28;880;-58
2021/10/25 13:02:10;;;;;;;;;;;17.00;99.90;;;;;;4974943;28;1473;-58
2021/10/25 13:04:40;;;;;;;;;;;17.10;99.90;;;;;;4970538;28;1203;-57
2021/10/25 13:07:19;;;;;;;;;;;17.10;99.90;;;;;;4968725;28;1208;-58
2021/10/25 13:09:51;;;;;;;;;;;17.10;99.90;;;;;;4970437;28;1169;-58
2021/10/25 13:12:18;;;;;;;;;;;17.00;99.90;;;;;;4974378;28;1033;-57
2021/10/25 13:14:44;;;;;;;;;;;17.00;99.90;;;;;;4977091;28;1575;-58
2021/10/25 13:17:11;;;;;;;;;;;17.00;99.90;;;;;;4979638;28;2008;-58
2021/10/25 13:19:37;;;;;;;;;;;17.00;99.90;;;;;;4977833;28;1287;-57
2021/10/25 13:22:03;;;;;;;;;;;17.10;99.90;;;;;;4980004;28;1401;-58
2021/10/25 13:24:29;;;;;;;;;;;17.10;99.90;;;;;;4979282;28;1279;-57
2021/10/25 13:26:55;;;;;;;;;;;17.10;99.90;;;;;;4980692;28;1010;-57
2021/10/25 13:29:21;;;;;;;;;;;17.00;99.90;;;;;;4980308;28;1069;-58
2021/10/25 13:31:47;;;;;;;;;;;17.00;99.90;;;;;;4980666;28;838;-57
2021/10/25 13:34:15;;;;;;;;;;;17.00;99.90;;;;;;4980565;28;882;-57
2021/10/25 13:36:41;;;;;;;;;;;17.00;99.90;;;;;;4980633;28;1898;-57
2021/10/25 13:39:08;;;;;;;;;;;17.00;99.90;;;;;;4980680;28;805;-58
2021/10/25 13:41:35;;;;;;;;;;;16.90;99.90;;;;;;4980059;28;848;-57
2021/10/25 13:44:01;;;;;;;;;;;16.90;99.90;;;;;;4979185;28;1280;-57
2021/10/25 13:46:27;;;;;;;;;;;16.90;99.90;;;;;;4980387;28;890;-57
2021/10/25 13:48:53;;;;;;;;;;;16.90;99.90;;;;;;4979635;28;1159;-57
2021/10/25 13:51:19;;;;;;;;;;;16.80;99.90;;;;;;4972374;28;1267;-57
2021/10/25 13:53:45;;;;;;;;;;;16.80;99.90;;;;;;4971813;28;1195;-57
2021/10/25 13:56:11;;;;;;;;;;;16.80;99.90;;;;;;4974169;28;1961;-57
2021/10/25 13:58:37;;;;;;;;;;;16.80;99.90;;;;;;4980422;28;1040;-57
2021/10/25 14:01:03;;;;;;;;;;;16.80;99.90;;;;;;4980264;28;974;-57
2021/10/25 14:03:29;;;;;;;;;;;16.80;99.90;;;;;;4980071;28;1680;-57
2021/10/25 14:05:58;;;;;;;;;;;16.80;99.90;;;;;;4980158;28;871;-57
2021/10/25 14:08:25;;;;;;;;;;;16.80;99.90;;;;;;4979725;28;1310;-57
2021/10/25 14:10:52;;;;;;;;;;;16.80;99.90;;;;;;4977462;28;1117;-57
2021/10/25 14:13:43;;;;;;;;;;;16.80;99.90;;;;;;4979932;28;971;-57
2021/10/25 14:16:32;;;;;;;;;;;16.80;99.90;;;;;;4977885;28;1964;-57
2021/10/25 14:18:52;;;;;;;;;;;16.80;99.90;;;;;;4965197;28;1231;-58
2021/10/25 14:21:18;;;;;;;;;;;16.80;99.90;;;;;;4975053;28;1316;-59
2021/10/25 14:23:45;;;;;;;;;;;16.80;99.90;;;;;;4976039;28;917;-58
2021/10/25 14:26:12;;;;;;;;;;;16.80;99.90;;;;;;4978003;28;1161;-58
2021/10/25 14:28:41;;;;;;;;;;;16.80;99.90;;;;;;4978797;28;944;-57
2021/10/25 14:31:12;;;;;;;;;;;16.80;99.90;;;;;;4978751;28;896;-57
2021/10/25 14:33:38;;;;;;;;;;;16.80;99.90;;;;;;4979487;28;839;-57
2021/10/25 14:36:04;;;;;;;;;;;16.80;99.90;;;;;;4979333;28;1910;-57
2021/10/25 14:41:07;;;;;;;;;;;16.80;99.90;;;;;;4978530;28;830;-60
2021/10/25 14:43:39;;;;;;;;;;;16.80;99.90;;;;;;4978975;28;1249;-60
2021/10/25 14:46:17;;;;;;;;;;;16.80;99.90;;;;;;4979054;28;873;-60
2021/10/25 14:49:01;;;;;;;;;;;16.80;99.90;;;;;;4973655;28;897;-60
2021/10/25 14:54:21;;;;;;;;;;;16.80;99.90;;;;;;4979143;28;747;-60
2021/10/25 14:56:47;;;;;;;;;;;16.80;99.90;;;;;;4978848;28;1972;-60
2021/10/25 14:59:13;;;;;;;;;;;16.80;99.90;;;;;;4974176;28;1050;-60
2021/10/25 15:01:39;;;;;;;;;;;16.80;99.90;;;;;;4971439;28;1021;-60
2021/10/25 15:04:09;;;;;;;;;;;16.80;99.90;;;;;;4979280;28;912;-60
2021/10/25 15:06:35;;;;;;;;;;;16.80;99.90;;;;;;4971711;28;933;-60
2021/10/25 15:09:02;;;;;;;;;;;16.80;99.90;;;;;;4978289;28;862;-58
2021/10/25 15:11:28;;;;;;;;;;;16.70;99.90;;;;;;4978067;28;1073;-57
2021/10/25 15:13:54;;;;;;;;;;;16.70;99.90;;;;;;4978529;28;940;-57
2021/10/25 15:16:20;;;;;;;;;;;16.70;99.90;;;;;;4973306;28;1902;-58
2021/10/25 15:18:46;;;;;;;;;;;16.70;99.90;;;;;;4971576;28;1046;-57
2021/10/25 15:21:15;;;;;;;;;;;16.70;99.90;;;;;;4975658;28;1093;-57
2021/10/25 15:23:42;;;;;;;;;;;16.70;99.90;;;;;;4977336;28;767;-58
2021/10/25 15:26:08;;;;;;;;;;;16.60;99.90;;;;;;4978653;28;787;-60
2021/10/25 15:28:34;;;;;;;;;;;16.60;99.90;;;;;;4976175;28;1391;-58
2021/10/25 15:31:00;;;;;;;;;;;16.60;99.90;;;;;;4976742;28;1068;-58
2021/10/25 15:33:26;;;;;;;;;;;16.70;99.90;;;;;;4977029;28;1117;-58
2021/10/25 15:35:54;;;;;;;;;;;16.70;99.90;;;;;;4977132;28;1902;-58
2021/10/25 15:38:20;;;;;;;;;;;16.70;99.90;;;;;;4968004;28;1175;-58
2021/10/25 15:40:46;;;;;;;;;;;17.00;99.90;;;;;;4980429;28;889;-54
2021/10/25 15:43:12;;;;;;;;;;;17.20;99.90;;;;;;4977409;28;1049;-54
2021/10/25 15:45:38;;;;;;;;;;;17.40;99.90;;;;;;4974455;28;1384;-54
2021/10/25 15:48:04;;;;;;;;;;;17.50;99.90;;;;;;4977857;28;1073;-53
2021/10/25 15:50:30;;;;;;;;;;;17.60;99.90;;;;;;4977511;28;935;-54
2021/10/25 15:52:58;;;;;;;;;;;17.60;99.90;;;;;;4971884;28;925;-54
2021/10/25 15:55:24;;;;;;;;;;;17.70;99.90;;;;;;4976939;28;1977;-54
2021/10/25 15:57:51;;;;;;;;;;;17.70;99.90;;;;;;4977863;28;1034;-53
2021/10/25 16:00:17;;;;;;;;;;;17.70;99.90;;;;;;4976095;28;1321;-54
2021/10/25 16:02:43;;;;;;;;;;;17.70;99.90;;;;;;4977833;28;869;-53
2021/10/25 16:05:09;;;;;;;;;;;17.80;99.90;;;;;;4977562;28;822;-53
2021/10/25 16:07:35;;;;;;;;;;;17.80;99.90;;;;;;4977935;28;893;-53
2021/10/25 16:10:02;;;;;;;;;;;17.80;99.90;;;;;;4977387;28;902;-54
2021/10/25 16:12:28;;;;;;;;;;;17.80;99.90;;;;;;4978055;28;768;-56